sensor_id;sensor_type;location;lat;lon;timestamp;temperature;humidity
7206;DHT22;3644;53.480;10.004;2023-02-27T00:01:10;2.10;99.90
7206;DHT22;3644;53.480;10.004;2023-02-27T00:03:35;2.10;99.90
7206;DHT22;3644;53.480;10.004;2023-02-27T00:06:01;2.10;99.90
7206;DHT22;3644;53.480;10.004;2023-02-27T00:08:26;2.10;99.90
7206;DHT22;3644;53.480;10.004;2023-02-27T00:10:52;2.10;99.90
7206;DHT22;3644;53.480;10.004;2023-02-27T00:13:17;2.10;99.90
7206;DHT22;3644;53.480;10.004;2023-02-27T00:15:47;2.00;99.90
7206;DHT22;3644;53.480;10.004;2023-02-27T00:18:14;2.00;99.90
7206;DHT22;3644;53.480;10.004;2023-02-27T00:20:40;2.00;99.90
7206;DHT22;3644;53.480;10.004;2023-02-27T00:23:06;2.00;99.90
7206;DHT22;3644;53.480;10.004;2023-02-27T00:25:33;2.00;99.90
7206;DHT22;3644;53.480;10.004;2023-02-27T00:27:59;2.00;99.90
7206;DHT22;3644;53.480;10.004;2023-02-27T00:30:25;2.00;99.90
7206;DHT22;3644;53.480;10.004;2023-02-27T00:32:52;2.00;99.90
7206;DHT22;3644;53.480;10.004;2023-02-27T00:35:17;1.90;99.90
7206;DHT22;3644;53.480;10.004;2023-02-27T00:37:43;1.80;99.90
7206;DHT22;3644;53.480;10.004;2023-02-27T00:40:09;1.90;99.90
7206;DHT22;3644;53.480;10.004;2023-02-27T00:42:35;1.90;99.90
7206;DHT22;3644;53.480;10.004;2023-02-27T00:45:01;1.80;99.90
7206;DHT22;3644;53.480;10.004;2023-02-27T00:47:28;1.90;99.90
7206;DHT22;3644;53.480;10.004;2023-02-27T00:49:53;1.90;99.90
7206;DHT22;3644;53.480;10.004;2023-02-27T00:52:19;1.90;99.90
7206;DHT22;3644;53.480;10.004;2023-02-27T00:54:44;1.80;99.90
7206;DHT22;3644;53.480;10.004;2023-02-27T00:57:10;0.90;99.90
7206;DHT22;3644;53.480;10.004;2023-02-27T00:59:35;1.80;99.90
7206;DHT22;3644;53.480;10.004;2023-02-27T01:02:01;1.90;99.90
7206;DHT22;3644;53.480;10.004;2023-02-27T01:04:26;1.90;99.90
7206;DHT22;3644;53.480;10.004;2023-02-27T01:06:52;2.00;99.90
7206;DHT22;3644;53.480;10.004;2023-02-27T01:09:17;1.90;99.90
7206;DHT22;3644;53.480;10.004;2023-02-27T01:11:43;2.00;99.90
7206;DHT22;3644;53.480;10.004;2023-02-27T01:14:08;1.80;99.90
7206;DHT22;3644;53.480;10.004;2023-02-27T01:16:34;1.80;99.90
7206;DHT22;3644;53.480;10.004;2023-02-27T01:18:59;1.80;99.90
7206;DHT22;3644;53.480;10.004;2023-02-27T01:21:25;1.90;99.90
7206;DHT22;3644;53.480;10.004;2023-02-27T01:23:50;1.90;99.90
7206;DHT22;3644;53.480;10.004;2023-02-27T01:26:16;1.90;99.90
7206;DHT22;3644;53.480;10.004;2023-02-27T01:28:41;1.90;99.90
7206;DHT22;3644;53.480;10.004;2023-02-27T01:31:07;1.90;99.90
7206;DHT22;3644;53.480;10.004;2023-02-27T01:33:33;1.90;99.90
7206;DHT22;3644;53.480;10.004;2023-02-27T01:35:59;1.80;99.90
7206;DHT22;3644;53.480;10.004;2023-02-27T01:38:25;1.80;99.90
7206;DHT22;3644;53.480;10.004;2023-02-27T01:40:51;1.70;99.90
7206;DHT22;3644;53.480;10.004;2023-02-27T01:43:18;1.70;99.90
7206;DHT22;3644;53.480;10.004;2023-02-27T01:45:45;1.70;99.90
7206;DHT22;3644;53.480;10.004;2023-02-27T01:51:15;1.60;99.90
7206;DHT22;3644;53.480;10.004;2023-02-27T01:53:45;1.60;99.90
7206;DHT22;3644;53.480;10.004;2023-02-27T01:56:31;1.60;99.90
7206;DHT22;3644;53.480;10.004;2023-02-27T01:58:59;1.60;99.90
7206;DHT22;3644;53.480;10.004;2023-02-27T02:01:26;1.50;99.90
7206;DHT22;3644;53.480;10.004;2023-02-27T02:06:40;1.50;99.90
7206;DHT22;3644;53.480;10.004;2023-02-27T02:09:07;1.60;99.90
7206;DHT22;3644;53.480;10.004;2023-02-27T02:11:34;1.60;99.90
7206;DHT22;3644;53.480;10.004;2023-02-27T02:14:00;1.50;99.90
7206;DHT22;3644;53.480;10.004;2023-02-27T02:16:41;1.60;99.90
7206;DHT22;3644;53.480;10.004;2023-02-27T02:19:48;1.50;99.90
7206;DHT22;3644;53.480;10.004;2023-02-27T02:25:15;1.50;99.90
7206;DHT22;3644;53.480;10.004;2023-02-27T02:33:49;1.40;99.90
7206;DHT22;3644;53.480;10.004;2023-02-27T02:42:04;1.40;99.90
7206;DHT22;3644;53.480;10.004;2023-02-27T02:44:40;1.40;99.90
7206;DHT22;3644;53.480;10.004;2023-02-27T02:50:29;1.30;99.90
7206;DHT22;3644;53.480;10.004;2023-02-27T02:53:07;1.30;99.90
7206;DHT22;3644;53.480;10.004;2023-02-27T02:58:13;1.20;99.90
7206;DHT22;3644;53.480;10.004;2023-02-27T03:03:38;1.30;99.90
7206;DHT22;3644;53.480;10.004;2023-02-27T03:06:39;1.30;99.90
7206;DHT22;3644;53.480;10.004;2023-02-27T03:09:20;1.30;99.90
7206;DHT22;3644;53.480;10.004;2023-02-27T03:11:50;1.20;99.90
7206;DHT22;3644;53.480;10.004;2023-02-27T03:15:05;1.20;99.90
7206;DHT22;3644;53.480;10.004;2023-02-27T03:17:49;1.30;99.90
7206;DHT22;3644;53.480;10.004;2023-02-27T03:20:39;1.30;99.90
7206;DHT22;3644;53.480;10.004;2023-02-27T03:23:11;1.30;99.90
7206;DHT22;3644;53.480;10.004;2023-02-27T03:25:38;1.30;99.90
7206;DHT22;3644;53.480;10.004;2023-02-27T03:28:10;1.30;99.90
7206;DHT22;3644;53.480;10.004;2023-02-27T03:33:26;1.30;99.90
7206;DHT22;3644;53.480;10.004;2023-02-27T03:36:03;1.20;99.90
7206;DHT22;3644;53.480;10.004;2023-02-27T03:38:48;1.20;99.90
7206;DHT22;3644;53.480;10.004;2023-02-27T03:46:36;1.20;99.90
7206;DHT22;3644;53.480;10.004;2023-02-27T03:49:02;1.20;99.90
7206;DHT22;3644;53.480;10.004;2023-02-27T03:51:29;1.10;99.90
7206;DHT22;3644;53.480;10.004;2023-02-27T03:54:10;1.10;99.90
7206;DHT22;3644;53.480;10.004;2023-02-27T03:56:50;1.10;99.90
7206;DHT22;3644;53.480;10.004;2023-02-27T03:59:20;1.10;99.90
7206;DHT22;3644;53.480;10.004;2023-02-27T04:01:46;1.20;99.90
7206;DHT22;3644;53.480;10.004;2023-02-27T04:04:14;1.20;99.90
7206;DHT22;3644;53.480;10.004;2023-02-27T04:06:45;1.20;99.90
7206;DHT22;3644;53.480;10.004;2023-02-27T04:12:43;1.20;99.90
7206;DHT22;3644;53.480;10.004;2023-02-27T04:15:20;1.10;99.90
7206;DHT22;3644;53.480;10.004;2023-02-27T04:18:09;1.10;99.90
7206;DHT22;3644;53.480;10.004;2023-02-27T04:20:48;1.10;99.90
7206;DHT22;3644;53.480;10.004;2023-02-27T04:23:31;1.00;99.90
7206;DHT22;3644;53.480;10.004;2023-02-27T04:26:20;1.10;99.90
7206;DHT22;3644;53.480;10.004;2023-02-27T04:28:52;1.00;99.90
7206;DHT22;3644;53.480;10.004;2023-02-27T04:31:30;0.90;99.90
7206;DHT22;3644;53.480;10.004;2023-02-27T04:34:07;0.90;99.90
7206;DHT22;3644;53.480;10.004;2023-02-27T04:37:01;1.00;99.90
7206;DHT22;3644;53.480;10.004;2023-02-27T04:39:30;1.10;99.90
7206;DHT22;3644;53.480;10.004;2023-02-27T04:42:17;1.10;99.90
7206;DHT22;3644;53.480;10.004;2023-02-27T04:44:46;1.10;99.90
7206;DHT22;3644;53.480;10.004;2023-02-27T04:47:14;1.00;99.90
7206;DHT22;3644;53.480;10.004;2023-02-27T04:49:50;0.90;99.90
7206;DHT22;3644;53.480;10.004;2023-02-27T04:52:24;1.00;99.90
7206;DHT22;3644;53.480;10.004;2023-02-27T04:54:58;1.00;99.90
7206;DHT22;3644;53.480;10.004;2023-02-27T04:58:13;1.00;99.90
7206;DHT22;3644;53.480;10.004;2023-02-27T05:00:21;1.00;99.90
7206;DHT22;3644;53.480;10.004;2023-02-27T05:02:55;1.00;99.90
7206;DHT22;3644;53.480;10.004;2023-02-27T05:05:25;1.00;99.90
7206;DHT22;3644;53.480;10.004;2023-02-27T05:07:56;1.10;99.90
7206;DHT22;3644;53.480;10.004;2023-02-27T05:10:39;1.00;99.90
7206;DHT22;3644;53.480;10.004;2023-02-27T05:13:33;1.00;99.90
7206;DHT22;3644;53.480;10.004;2023-02-27T05:16:09;1.00;99.90
7206;DHT22;3644;53.480;10.004;2023-02-27T05:18:35;1.00;99.90
7206;DHT22;3644;53.480;10.004;2023-02-27T05:21:25;0.90;99.90
7206;DHT22;3644;53.480;10.004;2023-02-27T05:24:20;1.00;99.90
7206;DHT22;3644;53.480;10.004;2023-02-27T05:29:58;1.00;99.90
7206;DHT22;3644;53.480;10.004;2023-02-27T05:32:44;0.90;99.90
7206;DHT22;3644;53.480;10.004;2023-02-27T05:35:46;0.90;99.90
7206;DHT22;3644;53.480;10.004;2023-02-27T05:38:31;1.00;99.90
7206;DHT22;3644;53.480;10.004;2023-02-27T05:41:06;0.90;99.90
7206;DHT22;3644;53.480;10.004;2023-02-27T05:46:32;1.00;99.90
7206;DHT22;3644;53.480;10.004;2023-02-27T05:49:38;1.00;99.90
7206;DHT22;3644;53.480;10.004;2023-02-27T05:52:09;1.10;99.90
7206;DHT22;3644;53.480;10.004;2023-02-27T05:57:50;1.20;99.90
7206;DHT22;3644;53.480;10.004;2023-02-27T06:00:20;1.20;99.90
7206;DHT22;3644;53.480;10.004;2023-02-27T06:02:48;1.20;99.90
7206;DHT22;3644;53.480;10.004;2023-02-27T06:05:15;1.10;99.90
7206;DHT22;3644;53.480;10.004;2023-02-27T06:07:41;1.00;99.90
7206;DHT22;3644;53.480;10.004;2023-02-27T06:10:10;1.10;99.90
7206;DHT22;3644;53.480;10.004;2023-02-27T06:12:36;1.10;99.90
7206;DHT22;3644;53.480;10.004;2023-02-27T06:15:02;1.10;99.90
7206;DHT22;3644;53.480;10.004;2023-02-27T06:17:27;1.10;99.90
7206;DHT22;3644;53.480;10.004;2023-02-27T06:19:53;1.10;99.90
7206;DHT22;3644;53.480;10.004;2023-02-27T06:22:18;1.20;99.90
7206;DHT22;3644;53.480;10.004;2023-02-27T06:24:44;1.20;99.90
7206;DHT22;3644;53.480;10.004;2023-02-27T06:27:10;1.20;99.90
7206;DHT22;3644;53.480;10.004;2023-02-27T06:29:35;1.20;99.90
7206;DHT22;3644;53.480;10.004;2023-02-27T06:32:01;1.20;99.90
7206;DHT22;3644;53.480;10.004;2023-02-27T06:34:26;1.20;99.90
7206;DHT22;3644;53.480;10.004;2023-02-27T06:36:52;1.20;99.90
7206;DHT22;3644;53.480;10.004;2023-02-27T06:39:17;1.20;99.90
7206;DHT22;3644;53.480;10.004;2023-02-27T06:41:43;1.30;99.90
7206;DHT22;3644;53.480;10.004;2023-02-27T06:44:08;1.30;99.90
7206;DHT22;3644;53.480;10.004;2023-02-27T06:46:34;1.30;99.90
7206;DHT22;3644;53.480;10.004;2023-02-27T06:48:59;1.20;99.90
7206;DHT22;3644;53.480;10.004;2023-02-27T06:51:25;1.30;99.90
7206;DHT22;3644;53.480;10.004;2023-02-27T06:53:50;1.20;99.90
7206;DHT22;3644;53.480;10.004;2023-02-27T06:56:16;1.20;99.90
7206;DHT22;3644;53.480;10.004;2023-02-27T06:58:41;1.20;99.90
7206;DHT22;3644;53.480;10.004;2023-02-27T07:01:07;1.30;99.90
7206;DHT22;3644;53.480;10.004;2023-02-27T07:03:32;1.40;99.90
7206;DHT22;3644;53.480;10.004;2023-02-27T07:05:58;1.30;99.90
7206;DHT22;3644;53.480;10.004;2023-02-27T07:08:24;1.30;99.90
7206;DHT22;3644;53.480;10.004;2023-02-27T07:10:49;1.30;99.90
7206;DHT22;3644;53.480;10.004;2023-02-27T07:13:16;1.40;99.90
7206;DHT22;3644;53.480;10.004;2023-02-27T07:15:42;1.20;99.90
7206;DHT22;3644;53.480;10.004;2023-02-27T07:18:09;1.20;99.90
7206;DHT22;3644;53.480;10.004;2023-02-27T07:20:34;1.30;99.90
7206;DHT22;3644;53.480;10.004;2023-02-27T07:23:00;1.30;99.90
7206;DHT22;3644;53.480;10.004;2023-02-27T07:25:25;1.30;99.90
7206;DHT22;3644;53.480;10.004;2023-02-27T07:27:51;1.40;99.90
7206;DHT22;3644;53.480;10.004;2023-02-27T07:30:17;1.40;99.90
7206;DHT22;3644;53.480;10.004;2023-02-27T07:32:43;1.50;99.90
7206;DHT22;3644;53.480;10.004;2023-02-27T07:35:09;1.60;99.90
7206;DHT22;3644;53.480;10.004;2023-02-27T07:37:36;1.70;99.90
7206;DHT22;3644;53.480;10.004;2023-02-27T07:40:02;1.70;99.90
7206;DHT22;3644;53.480;10.004;2023-02-27T07:42:28;1.80;99.90
7206;DHT22;3644;53.480;10.004;2023-02-27T07:44:53;1.90;99.90
7206;DHT22;3644;53.480;10.004;2023-02-27T07:47:19;2.10;99.90
7206;DHT22;3644;53.480;10.004;2023-02-27T07:49:44;2.20;99.90
7206;DHT22;3644;53.480;10.004;2023-02-27T07:52:10;2.30;99.90
7206;DHT22;3644;53.480;10.004;2023-02-27T07:54:36;2.40;99.90
7206;DHT22;3644;53.480;10.004;2023-02-27T07:57:03;2.30;99.90
7206;DHT22;3644;53.480;10.004;2023-02-27T07:59:28;2.20;99.90
7206;DHT22;3644;53.480;10.004;2023-02-27T08:01:54;2.40;99.90
7206;DHT22;3644;53.480;10.004;2023-02-27T08:04:19;2.70;99.90
7206;DHT22;3644;53.480;10.004;2023-02-27T08:06:45;2.70;99.90
7206;DHT22;3644;53.480;10.004;2023-02-27T08:09:10;2.80;99.90
7206;DHT22;3644;53.480;10.004;2023-02-27T08:11:36;2.70;99.90
7206;DHT22;3644;53.480;10.004;2023-02-27T08:14:01;2.90;99.90
7206;DHT22;3644;53.480;10.004;2023-02-27T08:16:27;3.00;99.90
7206;DHT22;3644;53.480;10.004;2023-02-27T08:18:53;3.00;99.90
7206;DHT22;3644;53.480;10.004;2023-02-27T08:21:18;3.10;99.90
7206;DHT22;3644;53.480;10.004;2023-02-27T08:23:44;3.20;99.90
7206;DHT22;3644;53.480;10.004;2023-02-27T08:26:09;3.30;99.90
7206;DHT22;3644;53.480;10.004;2023-02-27T08:28:35;3.40;99.90
7206;DHT22;3644;53.480;10.004;2023-02-27T08:31:00;3.40;99.90
7206;DHT22;3644;53.480;10.004;2023-02-27T08:33:26;3.70;99.90
7206;DHT22;3644;53.480;10.004;2023-02-27T08:35:51;3.50;99.90
7206;DHT22;3644;53.480;10.004;2023-02-27T08:38:18;3.50;99.90
7206;DHT22;3644;53.480;10.004;2023-02-27T08:40:44;3.60;99.90
7206;DHT22;3644;53.480;10.004;2023-02-27T08:43:10;3.50;99.90
7206;DHT22;3644;53.480;10.004;2023-02-27T08:45:35;3.60;99.90
7206;DHT22;3644;53.480;10.004;2023-02-27T08:48:01;3.80;99.90
7206;DHT22;3644;53.480;10.004;2023-02-27T08:50:26;3.80;99.90
7206;DHT22;3644;53.480;10.004;2023-02-27T08:52:53;3.80;99.90
7206;DHT22;3644;53.480;10.004;2023-02-27T08:55:18;3.70;99.90
7206;DHT22;3644;53.480;10.004;2023-02-27T08:57:44;3.80;99.90
7206;DHT22;3644;53.480;10.004;2023-02-27T09:00:10;3.80;99.90
7206;DHT22;3644;53.480;10.004;2023-02-27T09:02:39;3.70;99.90
7206;DHT22;3644;53.480;10.004;2023-02-27T09:05:05;3.90;99.90
7206;DHT22;3644;53.480;10.004;2023-02-27T09:07:31;3.90;99.90
7206;DHT22;3644;53.480;10.004;2023-02-27T09:09:59;4.00;99.90
7206;DHT22;3644;53.480;10.004;2023-02-27T09:12:24;3.90;99.90
7206;DHT22;3644;53.480;10.004;2023-02-27T09:14:50;4.10;99.90
7206;DHT22;3644;53.480;10.004;2023-02-27T09:17:15;4.00;99.90
7206;DHT22;3644;53.480;10.004;2023-02-27T09:19:41;4.00;99.90
7206;DHT22;3644;53.480;10.004;2023-02-27T09:22:06;4.10;99.90
7206;DHT22;3644;53.480;10.004;2023-02-27T09:24:32;4.20;99.90
7206;DHT22;3644;53.480;10.004;2023-02-27T09:26:57;4.30;99.90
7206;DHT22;3644;53.480;10.004;2023-02-27T09:29:23;4.40;99.90
7206;DHT22;3644;53.480;10.004;2023-02-27T09:31:49;4.60;99.90
7206;DHT22;3644;53.480;10.004;2023-02-27T09:34:16;4.70;99.90
7206;DHT22;3644;53.480;10.004;2023-02-27T09:36:41;4.90;99.90
7206;DHT22;3644;53.480;10.004;2023-02-27T09:39:07;4.70;99.90
7206;DHT22;3644;53.480;10.004;2023-02-27T09:42:04;4.80;99.90
7206;DHT22;3644;53.480;10.004;2023-02-27T09:44:36;4.60;99.90
7206;DHT22;3644;53.480;10.004;2023-02-27T09:47:05;4.50;99.90
7206;DHT22;3644;53.480;10.004;2023-02-27T09:49:46;4.50;99.90
7206;DHT22;3644;53.480;10.004;2023-02-27T09:52:13;4.70;99.90
7206;DHT22;3644;53.480;10.004;2023-02-27T09:54:39;4.60;99.90
7206;DHT22;3644;53.480;10.004;2023-02-27T09:57:06;4.70;99.90
7206;DHT22;3644;53.480;10.004;2023-02-27T09:59:50;4.80;99.90
7206;DHT22;3644;53.480;10.004;2023-02-27T10:16:14;5.20;99.90
7206;DHT22;3644;53.480;10.004;2023-02-27T10:19:09;5.50;99.90
7206;DHT22;3644;53.480;10.004;2023-02-27T10:21:41;5.70;99.90
7206;DHT22;3644;53.480;10.004;2023-02-27T10:24:33;5.90;99.90
7206;DHT22;3644;53.480;10.004;2023-02-27T10:27:02;5.70;99.90
7206;DHT22;3644;53.480;10.004;2023-02-27T10:29:32;5.80;99.90
7206;DHT22;3644;53.480;10.004;2023-02-27T10:32:23;5.90;99.90
7206;DHT22;3644;53.480;10.004;2023-02-27T10:35:08;6.20;99.90
7206;DHT22;3644;53.480;10.004;2023-02-27T10:37:36;6.20;99.90
7206;DHT22;3644;53.480;10.004;2023-02-27T10:40:04;6.20;99.90
7206;DHT22;3644;53.480;10.004;2023-02-27T10:42:35;6.20;99.90
7206;DHT22;3644;53.480;10.004;2023-02-27T10:45:03;6.50;99.90
7206;DHT22;3644;53.480;10.004;2023-02-27T10:47:29;6.70;99.90
7206;DHT22;3644;53.480;10.004;2023-02-27T10:49:55;6.80;99.90
7206;DHT22;3644;53.480;10.004;2023-02-27T10:52:21;7.00;99.90
7206;DHT22;3644;53.480;10.004;2023-02-27T10:54:47;7.10;99.90
7206;DHT22;3644;53.480;10.004;2023-02-27T10:57:28;7.10;99.90
7206;DHT22;3644;53.480;10.004;2023-02-27T11:00:00;7.30;99.90
7206;DHT22;3644;53.480;10.004;2023-02-27T11:02:39;7.30;99.90
7206;DHT22;3644;53.480;10.004;2023-02-27T11:05:32;6.90;99.90
7206;DHT22;3644;53.480;10.004;2023-02-27T11:08:25;6.90;99.90
7206;DHT22;3644;53.480;10.004;2023-02-27T11:10:54;7.00;99.90
7206;DHT22;3644;53.480;10.004;2023-02-27T11:13:21;7.10;99.90
7206;DHT22;3644;53.480;10.004;2023-02-27T11:18:30;7.20;99.90
7206;DHT22;3644;53.480;10.004;2023-02-27T11:21:14;7.30;99.90
7206;DHT22;3644;53.480;10.004;2023-02-27T11:26:28;7.10;99.90
7206;DHT22;3644;53.480;10.004;2023-02-27T11:31:48;7.40;99.90
7206;DHT22;3644;53.480;10.004;2023-02-27T11:36:55;7.40;99.90
7206;DHT22;3644;53.480;10.004;2023-02-27T11:39:29;7.60;99.90
7206;DHT22;3644;53.480;10.004;2023-02-27T11:41:57;7.90;99.90
7206;DHT22;3644;53.480;10.004;2023-02-27T11:44:29;8.20;99.90
7206;DHT22;3644;53.480;10.004;2023-02-27T11:47:13;8.50;99.90
7206;DHT22;3644;53.480;10.004;2023-02-27T11:50:09;8.60;99.90
7206;DHT22;3644;53.480;10.004;2023-02-27T11:52:52;8.70;99.90
7206;DHT22;3644;53.480;10.004;2023-02-27T11:55:20;8.50;93.50
7206;DHT22;3644;53.480;10.004;2023-02-27T11:57:53;8.20;95.50
7206;DHT22;3644;53.480;10.004;2023-02-27T12:00:28;8.20;97.70
7206;DHT22;3644;53.480;10.004;2023-02-27T12:05:50;8.20;99.90
7206;DHT22;3644;53.480;10.004;2023-02-27T12:11:15;8.50;99.90
7206;DHT22;3644;53.480;10.004;2023-02-27T12:13:51;8.40;99.90
7206;DHT22;3644;53.480;10.004;2023-02-27T12:16:28;8.40;98.70
7206;DHT22;3644;53.480;10.004;2023-02-27T12:22:21;8.40;99.90
7206;DHT22;3644;53.480;10.004;2023-02-27T12:25:06;8.60;99.90
7206;DHT22;3644;53.480;10.004;2023-02-27T12:28:00;8.70;98.30
7206;DHT22;3644;53.480;10.004;2023-02-27T12:30:33;8.50;99.10
7206;DHT22;3644;53.480;10.004;2023-02-27T12:33:14;8.50;99.30
7206;DHT22;3644;53.480;10.004;2023-02-27T12:35:43;8.60;97.30
7206;DHT22;3644;53.480;10.004;2023-02-27T12:38:13;8.60;97.20
7206;DHT22;3644;53.480;10.004;2023-02-27T12:40:49;8.60;95.30
7206;DHT22;3644;53.480;10.004;2023-02-27T12:46:01;8.30;95.90
7206;DHT22;3644;53.480;10.004;2023-02-27T12:48:53;8.20;97.10
7206;DHT22;3644;53.480;10.004;2023-02-27T12:57:04;8.60;98.60
7206;DHT22;3644;53.480;10.004;2023-02-27T13:02:46;8.70;97.60
7206;DHT22;3644;53.480;10.004;2023-02-27T13:05:25;8.60;95.60
7206;DHT22;3644;53.480;10.004;2023-02-27T13:08:08;8.80;93.80
7206;DHT22;3644;53.480;10.004;2023-02-27T13:10:56;9.00;91.90
7206;DHT22;3644;53.480;10.004;2023-02-27T13:13:39;9.10;91.00
7206;DHT22;3644;53.480;10.004;2023-02-27T13:16:28;9.10;91.00
7206;DHT22;3644;53.480;10.004;2023-02-27T13:21:43;8.80;93.80
7206;DHT22;3644;53.480;10.004;2023-02-27T13:27:11;8.80;95.80
7206;DHT22;3644;53.480;10.004;2023-02-27T13:29:41;8.90;96.10
7206;DHT22;3644;53.480;10.004;2023-02-27T13:32:20;8.40;95.00
7206;DHT22;3644;53.480;10.004;2023-02-27T13:34:50;8.30;96.90
7206;DHT22;3644;53.480;10.004;2023-02-27T13:37:16;8.50;97.90
7206;DHT22;3644;53.480;10.004;2023-02-27T13:45:01;9.10;94.20
7206;DHT22;3644;53.480;10.004;2023-02-27T13:50:46;8.60;96.40
7206;DHT22;3644;53.480;10.004;2023-02-27T13:52:50;8.60;96.40
7206;DHT22;3644;53.480;10.004;2023-02-27T13:55:31;8.70;97.20
7206;DHT22;3644;53.480;10.004;2023-02-27T13:58:02;8.80;96.60
7206;DHT22;3644;53.480;10.004;2023-02-27T14:00:31;8.40;96.10
7206;DHT22;3644;53.480;10.004;2023-02-27T14:03:18;8.60;97.50
7206;DHT22;3644;53.480;10.004;2023-02-27T14:05:46;8.80;97.60
7206;DHT22;3644;53.480;10.004;2023-02-27T14:08:22;9.00;97.10
7206;DHT22;3644;53.480;10.004;2023-02-27T14:16:13;9.10;97.40
7206;DHT22;3644;53.480;10.004;2023-02-27T14:18:59;8.90;97.10
7206;DHT22;3644;53.480;10.004;2023-02-27T14:24:16;8.70;96.80
7206;DHT22;3644;53.480;10.004;2023-02-27T14:26:43;8.80;97.50
7206;DHT22;3644;53.480;10.004;2023-02-27T14:29:18;9.00;97.70
7206;DHT22;3644;53.480;10.004;2023-02-27T14:31:45;9.30;96.50
7206;DHT22;3644;53.480;10.004;2023-02-27T14:34:14;9.30;95.10
7206;DHT22;3644;53.480;10.004;2023-02-27T14:36:48;9.20;95.80
7206;DHT22;3644;53.480;10.004;2023-02-27T14:39:31;9.30;93.80
7206;DHT22;3644;53.480;10.004;2023-02-27T14:44:54;8.80;95.80
7206;DHT22;3644;53.480;10.004;2023-02-27T14:47:34;8.90;95.10
7206;DHT22;3644;53.480;10.004;2023-02-27T14:50:02;9.00;94.10
7206;DHT22;3644;53.480;10.004;2023-02-27T14:52:30;9.00;91.90
7206;DHT22;3644;53.480;10.004;2023-02-27T15:00:39;8.80;79.50
7206;DHT22;3644;53.480;10.004;2023-02-27T15:03:30;8.50;82.70
7206;DHT22;3644;53.480;10.004;2023-02-27T15:05:59;8.60;85.40
7206;DHT22;3644;53.480;10.004;2023-02-27T15:08:33;8.50;85.70
7206;DHT22;3644;53.480;10.004;2023-02-27T15:11:02;8.50;85.10
7206;DHT22;3644;53.480;10.004;2023-02-27T15:13:31;8.60;84.10
7206;DHT22;3644;53.480;10.004;2023-02-27T15:18:54;8.40;85.10
7206;DHT22;3644;53.480;10.004;2023-02-27T15:21:23;8.50;82.60
7206;DHT22;3644;53.480;10.004;2023-02-27T15:23:58;8.30;87.90
7206;DHT22;3644;53.480;10.004;2023-02-27T15:26:24;8.50;89.70
7206;DHT22;3644;53.480;10.004;2023-02-27T15:28:51;8.30;89.70
7206;DHT22;3644;53.480;10.004;2023-02-27T15:31:20;8.10;92.00
7206;DHT22;3644;53.480;10.004;2023-02-27T15:33:46;8.00;92.50
7206;DHT22;3644;53.480;10.004;2023-02-27T15:36:25;7.90;92.40
7206;DHT22;3644;53.480;10.004;2023-02-27T15:39:04;8.00;91.30
7206;DHT22;3644;53.480;10.004;2023-02-27T15:41:30;8.00;90.90
7206;DHT22;3644;53.480;10.004;2023-02-27T15:43:56;7.90;90.50
7206;DHT22;3644;53.480;10.004;2023-02-27T15:46:22;7.80;91.20
7206;DHT22;3644;53.480;10.004;2023-02-27T15:48:49;7.90;91.00
7206;DHT22;3644;53.480;10.004;2023-02-27T15:51:16;7.80;92.00
7206;DHT22;3644;53.480;10.004;2023-02-27T15:53:47;7.70;93.60
7206;DHT22;3644;53.480;10.004;2023-02-27T15:56:13;7.90;95.20
7206;DHT22;3644;53.480;10.004;2023-02-27T15:58:47;7.90;94.90
7206;DHT22;3644;53.480;10.004;2023-02-27T16:01:22;7.80;95.70
7206;DHT22;3644;53.480;10.004;2023-02-27T16:03:52;7.80;96.60
7206;DHT22;3644;53.480;10.004;2023-02-27T16:06:30;7.70;97.50
7206;DHT22;3644;53.480;10.004;2023-02-27T16:09:04;7.50;98.80
7206;DHT22;3644;53.480;10.004;2023-02-27T16:11:33;7.50;99.10
7206;DHT22;3644;53.480;10.004;2023-02-27T16:13:59;7.60;98.90
7206;DHT22;3644;53.480;10.004;2023-02-27T16:16:36;7.40;99.60
7206;DHT22;3644;53.480;10.004;2023-02-27T16:19:15;7.50;99.90
7206;DHT22;3644;53.480;10.004;2023-02-27T16:22:16;7.70;99.90
7206;DHT22;3644;53.480;10.004;2023-02-27T16:24:42;7.70;99.70
7206;DHT22;3644;53.480;10.004;2023-02-27T16:27:24;7.50;99.90
7206;DHT22;3644;53.480;10.004;2023-02-27T16:29:53;7.50;99.90
7206;DHT22;3644;53.480;10.004;2023-02-27T16:32:23;7.50;99.90
7206;DHT22;3644;53.480;10.004;2023-02-27T16:34:49;7.60;99.90
7206;DHT22;3644;53.480;10.004;2023-02-27T16:37:19;7.60;99.90
7206;DHT22;3644;53.480;10.004;2023-02-27T16:39:45;7.50;99.90
7206;DHT22;3644;53.480;10.004;2023-02-27T16:42:11;7.30;99.90
7206;DHT22;3644;53.480;10.004;2023-02-27T16:44:36;7.40;99.90
7206;DHT22;3644;53.480;10.004;2023-02-27T16:47:02;7.40;99.90
7206;DHT22;3644;53.480;10.004;2023-02-27T16:49:29;7.50;99.90
7206;DHT22;3644;53.480;10.004;2023-02-27T16:51:55;7.50;99.90
7206;DHT22;3644;53.480;10.004;2023-02-27T16:54:22;7.30;99.90
7206;DHT22;3644;53.480;10.004;2023-02-27T16:56:49;7.20;99.90
7206;DHT22;3644;53.480;10.004;2023-02-27T17:01:59;7.00;99.90
7206;DHT22;3644;53.480;10.004;2023-02-27T17:04:25;6.90;99.90
7206;DHT22;3644;53.480;10.004;2023-02-27T17:06:51;6.90;99.90
7206;DHT22;3644;53.480;10.004;2023-02-27T17:09:17;7.00;99.90
7206;DHT22;3644;53.480;10.004;2023-02-27T17:11:42;7.00;99.90
7206;DHT22;3644;53.480;10.004;2023-02-27T17:14:08;7.20;99.90
7206;DHT22;3644;53.480;10.004;2023-02-27T17:16:34;7.30;99.90
7206;DHT22;3644;53.480;10.004;2023-02-27T17:18:59;7.30;99.90
7206;DHT22;3644;53.480;10.004;2023-02-27T17:21:25;7.30;99.90
7206;DHT22;3644;53.480;10.004;2023-02-27T17:23:51;7.40;99.90
7206;DHT22;3644;53.480;10.004;2023-02-27T17:26:17;7.30;99.90
7206;DHT22;3644;53.480;10.004;2023-02-27T17:28:42;7.30;99.90
7206;DHT22;3644;53.480;10.004;2023-02-27T17:31:12;7.20;99.90
7206;DHT22;3644;53.480;10.004;2023-02-27T17:33:53;7.20;99.90
7206;DHT22;3644;53.480;10.004;2023-02-27T17:36:20;7.10;99.90
7206;DHT22;3644;53.480;10.004;2023-02-27T17:38:46;7.00;99.90
7206;DHT22;3644;53.480;10.004;2023-02-27T17:41:13;7.20;99.90
7206;DHT22;3644;53.480;10.004;2023-02-27T17:43:39;7.20;99.90
7206;DHT22;3644;53.480;10.004;2023-02-27T17:46:09;7.10;99.90
7206;DHT22;3644;53.480;10.004;2023-02-27T17:48:35;7.10;99.90
7206;DHT22;3644;53.480;10.004;2023-02-27T17:51:13;7.00;99.90
7206;DHT22;3644;53.480;10.004;2023-02-27T17:53:39;7.00;99.90
7206;DHT22;3644;53.480;10.004;2023-02-27T17:56:05;6.90;99.90
7206;DHT22;3644;53.480;10.004;2023-02-27T17:58:32;6.90;99.90
7206;DHT22;3644;53.480;10.004;2023-02-27T18:01:06;6.90;99.90
7206;DHT22;3644;53.480;10.004;2023-02-27T18:03:32;6.80;99.90
7206;DHT22;3644;53.480;10.004;2023-02-27T18:05:57;6.70;99.90
7206;DHT22;3644;53.480;10.004;2023-02-27T18:08:23;6.70;99.90
7206;DHT22;3644;53.480;10.004;2023-02-27T18:10:49;6.70;99.90
7206;DHT22;3644;53.480;10.004;2023-02-27T18:13:16;6.70;99.90
7206;DHT22;3644;53.480;10.004;2023-02-27T18:15:43;6.60;99.90
7206;DHT22;3644;53.480;10.004;2023-02-27T18:18:09;6.60;99.90
7206;DHT22;3644;53.480;10.004;2023-02-27T18:20:34;6.60;99.90
7206;DHT22;3644;53.480;10.004;2023-02-27T18:23:00;6.60;99.90
7206;DHT22;3644;53.480;10.004;2023-02-27T18:25:25;6.70;99.90
7206;DHT22;3644;53.480;10.004;2023-02-27T18:27:53;6.70;99.90
7206;DHT22;3644;53.480;10.004;2023-02-27T18:30:19;6.60;99.90
7206;DHT22;3644;53.480;10.004;2023-02-27T18:32:45;6.60;99.90
7206;DHT22;3644;53.480;10.004;2023-02-27T18:35:11;6.60;99.90
7206;DHT22;3644;53.480;10.004;2023-02-27T18:37:37;6.60;99.90